Beauly, United Kingdom
Current Conditions -  °F | °C
As of 2:50 PM on Friday 19 Dec 2014 (Local Time) from EGPE Reporting Station
Scattered Clouds Scattered Clouds  
Wind Chill: 26°   Ceiling: Unl
Heat Index: 37°   Visibility: 6mi
Dew Point: 32°   Wind: 25mph
Humidity: 81%   Direction: 260°W
Pressure: 29.5"   Gusts: 37mph
Location:  57.48°N, 4.46°W
Report Text: EGPE 191450Z 26022G32KT 9999 FEW005 SCT015CB 03/00 Q0999
Loading
Personal Weather Stations






























Interactive Weather Map New forecast layout! Learn more

10-Day Weather Forecast

Advertisements
Track Severe Weather on mobile